sensor_id;sensor_type;location;lat;lon;timestamp;temperature;humidity
31046;DHT22;17711;54.018;9.300;2023-04-03T00:01:23;1.40;99.90
31046;DHT22;17711;54.018;9.300;2023-04-03T00:03:51;1.50;99.90
31046;DHT22;17711;54.018;9.300;2023-04-03T00:06:22;1.50;99.90
31046;DHT22;17711;54.018;9.300;2023-04-03T00:08:50;1.60;99.90
31046;DHT22;17711;54.018;9.300;2023-04-03T00:11:19;1.60;99.90
31046;DHT22;17711;54.018;9.300;2023-04-03T00:13:48;1.70;99.90
31046;DHT22;17711;54.018;9.300;2023-04-03T00:16:17;1.70;99.90
31046;DHT22;17711;54.018;9.300;2023-04-03T00:18:46;1.80;99.90
31046;DHT22;17711;54.018;9.300;2023-04-03T00:21:14;1.80;99.90
31046;DHT22;17711;54.018;9.300;2023-04-03T00:23:44;1.80;99.90
31046;DHT22;17711;54.018;9.300;2023-04-03T00:26:13;1.80;99.90
31046;DHT22;17711;54.018;9.300;2023-04-03T00:29:12;1.90;99.90
31046;DHT22;17711;54.018;9.300;2023-04-03T00:31:41;1.80;99.90
31046;DHT22;17711;54.018;9.300;2023-04-03T00:34:09;1.70;99.90
31046;DHT22;17711;54.018;9.300;2023-04-03T00:36:38;1.50;99.90
31046;DHT22;17711;54.018;9.300;2023-04-03T00:39:08;1.50;99.90
31046;DHT22;17711;54.018;9.300;2023-04-03T00:41:37;1.60;99.90
31046;DHT22;17711;54.018;9.300;2023-04-03T00:47:30;1.50;99.90
31046;DHT22;17711;54.018;9.300;2023-04-03T00:49:59;1.80;99.90
31046;DHT22;17711;54.018;9.300;2023-04-03T00:52:29;1.60;99.90
31046;DHT22;17711;54.018;9.300;2023-04-03T00:55:02;1.60;99.90
31046;DHT22;17711;54.018;9.300;2023-04-03T00:57:32;1.50;99.90
31046;DHT22;17711;54.018;9.300;2023-04-03T01:00:05;1.70;99.90
31046;DHT22;17711;54.018;9.300;2023-04-03T01:02:37;1.80;99.90
31046;DHT22;17711;54.018;9.300;2023-04-03T01:05:08;1.80;99.90
31046;DHT22;17711;54.018;9.300;2023-04-03T01:07:37;1.70;99.90
31046;DHT22;17711;54.018;9.300;2023-04-03T01:10:11;1.70;99.90
31046;DHT22;17711;54.018;9.300;2023-04-03T01:12:43;1.60;99.90
31046;DHT22;17711;54.018;9.300;2023-04-03T01:15:15;1.60;99.90
31046;DHT22;17711;54.018;9.300;2023-04-03T01:17:46;1.50;99.90
31046;DHT22;17711;54.018;9.300;2023-04-03T01:20:39;1.50;99.90
31046;DHT22;17711;54.018;9.300;2023-04-03T01:23:37;1.60;99.90
31046;DHT22;17711;54.018;9.300;2023-04-03T01:26:10;1.50;99.90
31046;DHT22;17711;54.018;9.300;2023-04-03T01:28:39;1.50;99.90
31046;DHT22;17711;54.018;9.300;2023-04-03T01:31:14;1.40;99.90
31046;DHT22;17711;54.018;9.300;2023-04-03T01:33:45;1.30;99.90
31046;DHT22;17711;54.018;9.300;2023-04-03T01:36:16;1.10;99.90
31046;DHT22;17711;54.018;9.300;2023-04-03T01:38:45;1.10;99.90
31046;DHT22;17711;54.018;9.300;2023-04-03T01:41:13;1.00;99.90
31046;DHT22;17711;54.018;9.300;2023-04-03T01:43:42;1.00;99.90
31046;DHT22;17711;54.018;9.300;2023-04-03T01:46:11;1.10;99.90
31046;DHT22;17711;54.018;9.300;2023-04-03T01:48:40;0.90;99.90
31046;DHT22;17711;54.018;9.300;2023-04-03T01:51:11;0.80;99.90
31046;DHT22;17711;54.018;9.300;2023-04-03T01:53:40;0.90;99.90
31046;DHT22;17711;54.018;9.300;2023-04-03T01:56:08;1.00;99.90
31046;DHT22;17711;54.018;9.300;2023-04-03T01:58:37;1.30;99.90
31046;DHT22;17711;54.018;9.300;2023-04-03T02:01:06;1.30;99.90
31046;DHT22;17711;54.018;9.300;2023-04-03T02:03:35;1.40;99.90
31046;DHT22;17711;54.018;9.300;2023-04-03T02:06:04;1.50;99.90
31046;DHT22;17711;54.018;9.300;2023-04-03T02:08:34;1.50;99.90
31046;DHT22;17711;54.018;9.300;2023-04-03T02:11:02;1.60;99.90
31046;DHT22;17711;54.018;9.300;2023-04-03T02:13:31;1.60;99.90
31046;DHT22;17711;54.018;9.300;2023-04-03T02:16:05;1.60;99.90
31046;DHT22;17711;54.018;9.300;2023-04-03T02:18:34;1.50;99.90
31046;DHT22;17711;54.018;9.300;2023-04-03T02:21:02;1.60;99.90
31046;DHT22;17711;54.018;9.300;2023-04-03T02:23:31;1.70;99.90
31046;DHT22;17711;54.018;9.300;2023-04-03T02:26:06;1.80;99.90
31046;DHT22;17711;54.018;9.300;2023-04-03T02:28:35;1.80;99.90
31046;DHT22;17711;54.018;9.300;2023-04-03T02:31:04;1.80;99.90
31046;DHT22;17711;54.018;9.300;2023-04-03T02:33:33;1.80;99.90
31046;DHT22;17711;54.018;9.300;2023-04-03T02:36:04;1.80;99.90
31046;DHT22;17711;54.018;9.300;2023-04-03T02:38:34;1.70;99.90
31046;DHT22;17711;54.018;9.300;2023-04-03T02:41:05;1.60;99.90
31046;DHT22;17711;54.018;9.300;2023-04-03T02:43:34;1.50;99.90
31046;DHT22;17711;54.018;9.300;2023-04-03T02:46:03;1.40;99.90
31046;DHT22;17711;54.018;9.300;2023-04-03T02:48:32;1.50;99.90
31046;DHT22;17711;54.018;9.300;2023-04-03T02:51:01;1.50;99.90
31046;DHT22;17711;54.018;9.300;2023-04-03T02:53:30;1.50;99.90
31046;DHT22;17711;54.018;9.300;2023-04-03T02:55:58;1.50;99.90
31046;DHT22;17711;54.018;9.300;2023-04-03T02:58:28;1.20;99.90
31046;DHT22;17711;54.018;9.300;2023-04-03T03:00:57;1.20;99.90
31046;DHT22;17711;54.018;9.300;2023-04-03T03:03:25;0.90;99.90
31046;DHT22;17711;54.018;9.300;2023-04-03T03:06:01;0.80;99.90
31046;DHT22;17711;54.018;9.300;2023-04-03T03:08:31;0.80;99.90
31046;DHT22;17711;54.018;9.300;2023-04-03T03:10:59;0.70;99.90
31046;DHT22;17711;54.018;9.300;2023-04-03T03:13:30;0.60;99.90
31046;DHT22;17711;54.018;9.300;2023-04-03T03:15:59;0.50;99.90
31046;DHT22;17711;54.018;9.300;2023-04-03T03:18:28;0.50;99.90
31046;DHT22;17711;54.018;9.300;2023-04-03T03:20:59;0.60;99.90
31046;DHT22;17711;54.018;9.300;2023-04-03T03:23:29;0.50;99.90
31046;DHT22;17711;54.018;9.300;2023-04-03T03:26:00;0.50;99.90
31046;DHT22;17711;54.018;9.300;2023-04-03T03:28:31;0.60;99.90
31046;DHT22;17711;54.018;9.300;2023-04-03T03:31:00;0.80;99.90
31046;DHT22;17711;54.018;9.300;2023-04-03T03:33:29;0.90;99.90
31046;DHT22;17711;54.018;9.300;2023-04-03T03:35:58;1.00;99.90
31046;DHT22;17711;54.018;9.300;2023-04-03T03:38:27;1.00;99.90
31046;DHT22;17711;54.018;9.300;2023-04-03T03:40:55;1.10;99.90
31046;DHT22;17711;54.018;9.300;2023-04-03T03:43:24;1.00;99.90
31046;DHT22;17711;54.018;9.300;2023-04-03T03:45:54;1.00;99.90
31046;DHT22;17711;54.018;9.300;2023-04-03T03:48:23;1.10;99.90
31046;DHT22;17711;54.018;9.300;2023-04-03T03:50:52;1.00;99.90
31046;DHT22;17711;54.018;9.300;2023-04-03T03:53:20;1.00;99.90
31046;DHT22;17711;54.018;9.300;2023-04-03T03:55:49;0.90;99.90
31046;DHT22;17711;54.018;9.300;2023-04-03T03:58:17;1.00;99.90
31046;DHT22;17711;54.018;9.300;2023-04-03T04:00:46;0.90;99.90
31046;DHT22;17711;54.018;9.300;2023-04-03T04:03:16;0.90;99.90
31046;DHT22;17711;54.018;9.300;2023-04-03T04:05:45;1.00;99.90
31046;DHT22;17711;54.018;9.300;2023-04-03T04:08:13;0.90;99.90
31046;DHT22;17711;54.018;9.300;2023-04-03T04:10:42;0.80;99.90
31046;DHT22;17711;54.018;9.300;2023-04-03T04:13:11;0.80;99.90
31046;DHT22;17711;54.018;9.300;2023-04-03T04:15:39;0.70;99.90
31046;DHT22;17711;54.018;9.300;2023-04-03T04:18:08;0.80;99.90
31046;DHT22;17711;54.018;9.300;2023-04-03T04:20:38;0.70;99.90
31046;DHT22;17711;54.018;9.300;2023-04-03T04:23:07;0.50;99.90
31046;DHT22;17711;54.018;9.300;2023-04-03T04:25:36;0.20;99.90
31046;DHT22;17711;54.018;9.300;2023-04-03T04:28:05;0.20;99.90
31046;DHT22;17711;54.018;9.300;2023-04-03T04:30:34;0.10;99.90
31046;DHT22;17711;54.018;9.300;2023-04-03T04:33:02;0.20;99.90
31046;DHT22;17711;54.018;9.300;2023-04-03T04:35:31;0.10;99.90
31046;DHT22;17711;54.018;9.300;2023-04-03T04:38:01;0.10;99.90
31046;DHT22;17711;54.018;9.300;2023-04-03T04:40:30;0.20;99.90
31046;DHT22;17711;54.018;9.300;2023-04-03T04:42:58;0.30;99.90
31046;DHT22;17711;54.018;9.300;2023-04-03T04:45:27;0.40;99.90
31046;DHT22;17711;54.018;9.300;2023-04-03T04:47:55;0.30;99.90
31046;DHT22;17711;54.018;9.300;2023-04-03T04:50:24;0.20;99.90
31046;DHT22;17711;54.018;9.300;2023-04-03T04:52:52;0.30;99.90
31046;DHT22;17711;54.018;9.300;2023-04-03T04:55:23;0.30;99.90
31046;DHT22;17711;54.018;9.300;2023-04-03T04:57:51;0.40;99.90
31046;DHT22;17711;54.018;9.300;2023-04-03T05:00:20;0.40;99.90
31046;DHT22;17711;54.018;9.300;2023-04-03T05:02:52;0.50;99.90
31046;DHT22;17711;54.018;9.300;2023-04-03T05:05:21;0.40;99.90
31046;DHT22;17711;54.018;9.300;2023-04-03T05:07:50;0.40;99.90
31046;DHT22;17711;54.018;9.300;2023-04-03T05:10:18;0.50;99.90
31046;DHT22;17711;54.018;9.300;2023-04-03T05:12:49;0.40;99.90
31046;DHT22;17711;54.018;9.300;2023-04-03T05:15:17;0.40;99.90
31046;DHT22;17711;54.018;9.300;2023-04-03T05:17:46;0.50;99.90
31046;DHT22;17711;54.018;9.300;2023-04-03T05:20:15;0.30;99.90
31046;DHT22;17711;54.018;9.300;2023-04-03T05:22:43;0.20;99.90
31046;DHT22;17711;54.018;9.300;2023-04-03T05:25:12;0.00;99.90
31046;DHT22;17711;54.018;9.300;2023-04-03T05:27:40;0.10;99.90
31046;DHT22;17711;54.018;9.300;2023-04-03T05:30:11;0.00;99.90
31046;DHT22;17711;54.018;9.300;2023-04-03T05:32:40;0.20;99.90
31046;DHT22;17711;54.018;9.300;2023-04-03T05:35:09;0.10;99.90
31046;DHT22;17711;54.018;9.300;2023-04-03T05:37:38;0.10;99.90
31046;DHT22;17711;54.018;9.300;2023-04-03T05:40:08;0.20;99.90
31046;DHT22;17711;54.018;9.300;2023-04-03T05:42:37;0.20;99.90
31046;DHT22;17711;54.018;9.300;2023-04-03T05:45:06;0.20;99.90
31046;DHT22;17711;54.018;9.300;2023-04-03T05:47:37;0.20;99.90
31046;DHT22;17711;54.018;9.300;2023-04-03T05:50:06;0.20;99.90
31046;DHT22;17711;54.018;9.300;2023-04-03T05:52:37;0.20;99.90
31046;DHT22;17711;54.018;9.300;2023-04-03T05:55:07;0.30;99.90
31046;DHT22;17711;54.018;9.300;2023-04-03T05:57:36;0.40;99.90
31046;DHT22;17711;54.018;9.300;2023-04-03T06:00:06;0.50;99.90
31046;DHT22;17711;54.018;9.300;2023-04-03T06:02:34;0.60;99.90
31046;DHT22;17711;54.018;9.300;2023-04-03T06:05:06;0.80;99.90
31046;DHT22;17711;54.018;9.300;2023-04-03T06:07:36;0.90;99.90
31046;DHT22;17711;54.018;9.300;2023-04-03T06:10:06;0.90;99.90
31046;DHT22;17711;54.018;9.300;2023-04-03T06:12:36;1.00;99.90
31046;DHT22;17711;54.018;9.300;2023-04-03T06:15:05;1.20;99.90
31046;DHT22;17711;54.018;9.300;2023-04-03T06:17:35;1.20;99.90
31046;DHT22;17711;54.018;9.300;2023-04-03T06:20:06;1.30;99.90
31046;DHT22;17711;54.018;9.300;2023-04-03T06:22:36;1.40;99.90
31046;DHT22;17711;54.018;9.300;2023-04-03T06:25:06;1.50;99.90
31046;DHT22;17711;54.018;9.300;2023-04-03T06:27:34;1.60;99.90
31046;DHT22;17711;54.018;9.300;2023-04-03T06:30:04;1.60;99.90
31046;DHT22;17711;54.018;9.300;2023-04-03T06:32:33;1.70;99.90
31046;DHT22;17711;54.018;9.300;2023-04-03T06:35:02;1.80;99.90
31046;DHT22;17711;54.018;9.300;2023-04-03T06:37:32;1.80;99.90
31046;DHT22;17711;54.018;9.300;2023-04-03T06:40:01;1.90;99.90
31046;DHT22;17711;54.018;9.300;2023-04-03T06:42:30;2.00;99.90
31046;DHT22;17711;54.018;9.300;2023-04-03T06:44:58;2.00;99.90
31046;DHT22;17711;54.018;9.300;2023-04-03T06:47:27;2.10;99.90
31046;DHT22;17711;54.018;9.300;2023-04-03T06:49:56;2.20;99.90
31046;DHT22;17711;54.018;9.300;2023-04-03T06:52:24;2.30;99.90
31046;DHT22;17711;54.018;9.300;2023-04-03T06:54:55;2.40;99.90
31046;DHT22;17711;54.018;9.300;2023-04-03T06:57:24;2.50;99.90
31046;DHT22;17711;54.018;9.300;2023-04-03T06:59:53;2.60;99.90
31046;DHT22;17711;54.018;9.300;2023-04-03T07:02:22;2.60;99.90
31046;DHT22;17711;54.018;9.300;2023-04-03T07:04:51;2.80;99.90
31046;DHT22;17711;54.018;9.300;2023-04-03T07:07:19;2.80;99.90
31046;DHT22;17711;54.018;9.300;2023-04-03T07:09:49;2.90;99.90
31046;DHT22;17711;54.018;9.300;2023-04-03T07:12:19;3.00;99.90
31046;DHT22;17711;54.018;9.300;2023-04-03T07:14:48;3.10;99.90
31046;DHT22;17711;54.018;9.300;2023-04-03T07:17:17;3.20;99.90
31046;DHT22;17711;54.018;9.300;2023-04-03T07:19:46;3.30;99.90
31046;DHT22;17711;54.018;9.300;2023-04-03T07:22:14;3.50;99.90
31046;DHT22;17711;54.018;9.300;2023-04-03T07:24:43;3.60;99.90
31046;DHT22;17711;54.018;9.300;2023-04-03T07:27:12;3.80;99.90
31046;DHT22;17711;54.018;9.300;2023-04-03T07:29:42;4.00;99.90
31046;DHT22;17711;54.018;9.300;2023-04-03T07:32:11;4.20;99.90
31046;DHT22;17711;54.018;9.300;2023-04-03T07:34:39;4.50;99.90
31046;DHT22;17711;54.018;9.300;2023-04-03T07:37:08;4.90;99.90
31046;DHT22;17711;54.018;9.300;2023-04-03T07:39:37;5.30;99.90
31046;DHT22;17711;54.018;9.300;2023-04-03T07:42:06;5.90;99.90
31046;DHT22;17711;54.018;9.300;2023-04-03T07:44:35;6.40;99.90
31046;DHT22;17711;54.018;9.300;2023-04-03T07:47:05;7.00;99.90
31046;DHT22;17711;54.018;9.300;2023-04-03T07:49:35;7.50;99.90
31046;DHT22;17711;54.018;9.300;2023-04-03T07:52:07;7.60;99.90
31046;DHT22;17711;54.018;9.300;2023-04-03T07:54:37;8.00;99.90
31046;DHT22;17711;54.018;9.300;2023-04-03T07:57:06;8.70;99.90
31046;DHT22;17711;54.018;9.300;2023-04-03T07:59:34;9.30;99.90
31046;DHT22;17711;54.018;9.300;2023-04-03T08:02:04;9.80;99.90
31046;DHT22;17711;54.018;9.300;2023-04-03T08:04:33;10.80;99.90
31046;DHT22;17711;54.018;9.300;2023-04-03T08:07:03;11.80;99.90
31046;DHT22;17711;54.018;9.300;2023-04-03T08:09:32;11.70;99.90
31046;DHT22;17711;54.018;9.300;2023-04-03T08:12:01;12.20;99.90
31046;DHT22;17711;54.018;9.300;2023-04-03T08:14:31;13.10;99.90
31046;DHT22;17711;54.018;9.300;2023-04-03T08:17:01;14.50;94.30
31046;DHT22;17711;54.018;9.300;2023-04-03T08:19:33;15.90;77.70
31046;DHT22;17711;54.018;9.300;2023-04-03T08:22:02;17.30;64.80
31046;DHT22;17711;54.018;9.300;2023-04-03T08:24:32;18.40;48.70
31046;DHT22;17711;54.018;9.300;2023-04-03T08:27:03;19.60;46.80
31046;DHT22;17711;54.018;9.300;2023-04-03T08:29:32;20.50;39.00
31046;DHT22;17711;54.018;9.300;2023-04-03T08:32:00;20.70;33.60
31046;DHT22;17711;54.018;9.300;2023-04-03T08:34:29;21.20;36.30
31046;DHT22;17711;54.018;9.300;2023-04-03T08:36:59;22.10;31.30
31046;DHT22;17711;54.018;9.300;2023-04-03T08:39:28;22.10;28.30
31046;DHT22;17711;54.018;9.300;2023-04-03T08:41:58;22.50;34.90
31046;DHT22;17711;54.018;9.300;2023-04-03T08:44:31;23.80;32.30
31046;DHT22;17711;54.018;9.300;2023-04-03T08:47:12;23.50;27.00
31046;DHT22;17711;54.018;9.300;2023-04-03T08:49:48;23.50;29.00
31046;DHT22;17711;54.018;9.300;2023-04-03T08:52:24;23.90;28.60
31046;DHT22;17711;54.018;9.300;2023-04-03T08:54:59;24.20;24.00
31046;DHT22;17711;54.018;9.300;2023-04-03T08:57:30;24.30;24.30
31046;DHT22;17711;54.018;9.300;2023-04-03T09:00:04;24.70;25.30
31046;DHT22;17711;54.018;9.300;2023-04-03T09:02:40;25.70;27.00
31046;DHT22;17711;54.018;9.300;2023-04-03T09:05:13;26.70;25.50
31046;DHT22;17711;54.018;9.300;2023-04-03T09:07:46;27.30;24.70
31046;DHT22;17711;54.018;9.300;2023-04-03T09:10:21;27.80;25.80
31046;DHT22;17711;54.018;9.300;2023-04-03T09:12:57;28.20;22.80
31046;DHT22;17711;54.018;9.300;2023-04-03T09:15:27;27.60;21.10
31046;DHT22;17711;54.018;9.300;2023-04-03T09:18:09;27.10;22.00
31046;DHT22;17711;54.018;9.300;2023-04-03T09:20:44;26.80;21.00
31046;DHT22;17711;54.018;9.300;2023-04-03T09:23:20;27.00;24.40
31046;DHT22;17711;54.018;9.300;2023-04-03T09:25:54;27.90;24.50
31046;DHT22;17711;54.018;9.300;2023-04-03T09:28:25;28.50;23.10
31046;DHT22;17711;54.018;9.300;2023-04-03T09:30:56;28.40;22.80
31046;DHT22;17711;54.018;9.300;2023-04-03T09:33:25;28.70;23.40
31046;DHT22;17711;54.018;9.300;2023-04-03T09:35:54;28.70;20.70
31046;DHT22;17711;54.018;9.300;2023-04-03T09:38:24;28.40;22.40
31046;DHT22;17711;54.018;9.300;2023-04-03T09:41:04;27.10;21.30
31046;DHT22;17711;54.018;9.300;2023-04-03T09:43:34;26.50;23.00
31046;DHT22;17711;54.018;9.300;2023-04-03T09:46:33;25.80;22.70
31046;DHT22;17711;54.018;9.300;2023-04-03T09:49:05;25.70;24.10
31046;DHT22;17711;54.018;9.300;2023-04-03T09:51:36;26.70;24.50
31046;DHT22;17711;54.018;9.300;2023-04-03T09:54:34;27.50;24.90
31046;DHT22;17711;54.018;9.300;2023-04-03T09:57:10;28.10;21.10
31046;DHT22;17711;54.018;9.300;2023-04-03T09:59:44;28.10;23.30
31046;DHT22;17711;54.018;9.300;2023-04-03T10:02:21;28.90;23.30
31046;DHT22;17711;54.018;9.300;2023-04-03T10:04:50;27.80;20.60
31046;DHT22;17711;54.018;9.300;2023-04-03T10:07:36;28.30;23.60
31046;DHT22;17711;54.018;9.300;2023-04-03T10:10:19;27.70;20.40
31046;DHT22;17711;54.018;9.300;2023-04-03T10:13:04;28.10;24.60
31046;DHT22;17711;54.018;9.300;2023-04-03T10:15:36;28.70;24.00
31046;DHT22;17711;54.018;9.300;2023-04-03T10:18:17;28.80;22.80
31046;DHT22;17711;54.018;9.300;2023-04-03T10:20:51;29.40;23.10
31046;DHT22;17711;54.018;9.300;2023-04-03T10:23:26;29.40;20.20
31046;DHT22;17711;54.018;9.300;2023-04-03T10:26:05;29.40;21.30
31046;DHT22;17711;54.018;9.300;2023-04-03T10:28:45;29.90;22.50
31046;DHT22;17711;54.018;9.300;2023-04-03T10:31:21;29.70;21.40
31046;DHT22;17711;54.018;9.300;2023-04-03T10:33:59;30.20;21.30
31046;DHT22;17711;54.018;9.300;2023-04-03T10:36:40;30.00;20.80
31046;DHT22;17711;54.018;9.300;2023-04-03T10:39:19;29.40;19.50
31046;DHT22;17711;54.018;9.300;2023-04-03T10:42:02;29.40;20.50
31046;DHT22;17711;54.018;9.300;2023-04-03T10:44:58;28.80;20.80
31046;DHT22;17711;54.018;9.300;2023-04-03T10:47:36;28.30;21.60
31046;DHT22;17711;54.018;9.300;2023-04-03T10:50:23;26.70;23.30
31046;DHT22;17711;54.018;9.300;2023-04-03T10:52:57;26.30;22.80
31046;DHT22;17711;54.018;9.300;2023-04-03T10:55:35;26.60;22.70
31046;DHT22;17711;54.018;9.300;2023-04-03T10:58:07;27.60;24.80
31046;DHT22;17711;54.018;9.300;2023-04-03T11:00:45;28.40;20.60
31046;DHT22;17711;54.018;9.300;2023-04-03T11:03:14;28.50;22.70
31046;DHT22;17711;54.018;9.300;2023-04-03T11:05:47;27.70;20.90
31046;DHT22;17711;54.018;9.300;2023-04-03T11:08:24;27.10;22.50
31046;DHT22;17711;54.018;9.300;2023-04-03T11:10:58;26.80;24.70
31046;DHT22;17711;54.018;9.300;2023-04-03T11:13:33;26.40;22.60
31046;DHT22;17711;54.018;9.300;2023-04-03T11:16:04;27.80;25.50
31046;DHT22;17711;54.018;9.300;2023-04-03T11:18:37;29.20;23.60
31046;DHT22;17711;54.018;9.300;2023-04-03T11:21:12;29.00;19.50
31046;DHT22;17711;54.018;9.300;2023-04-03T11:23:42;28.20;20.60
31046;DHT22;17711;54.018;9.300;2023-04-03T11:26:18;28.10;21.70
31046;DHT22;17711;54.018;9.300;2023-04-03T11:28:56;27.60;20.60
31046;DHT22;17711;54.018;9.300;2023-04-03T11:31:37;26.70;23.60
31046;DHT22;17711;54.018;9.300;2023-04-03T11:34:21;24.60;22.50
31046;DHT22;17711;54.018;9.300;2023-04-03T11:36:54;23.70;27.30
31046;DHT22;17711;54.018;9.300;2023-04-03T11:39:28;23.30;28.10
31046;DHT22;17711;54.018;9.300;2023-04-03T11:44:41;21.00;30.00
31046;DHT22;17711;54.018;9.300;2023-04-03T11:47:11;20.20;30.40
31046;DHT22;17711;54.018;9.300;2023-04-03T11:49:58;20.50;31.70
31046;DHT22;17711;54.018;9.300;2023-04-03T11:52:56;20.60;31.50
31046;DHT22;17711;54.018;9.300;2023-04-03T11:55:59;22.70;29.20
31046;DHT22;17711;54.018;9.300;2023-04-03T11:58:31;22.90;23.60
31046;DHT22;17711;54.018;9.300;2023-04-03T12:01:07;21.60;24.20
31046;DHT22;17711;54.018;9.300;2023-04-03T12:07:11;19.50;29.60
31046;DHT22;17711;54.018;9.300;2023-04-03T12:10:17;21.90;33.00
31046;DHT22;17711;54.018;9.300;2023-04-03T12:13:00;23.80;25.20
31046;DHT22;17711;54.018;9.300;2023-04-03T12:15:52;24.40;26.60
31046;DHT22;17711;54.018;9.300;2023-04-03T12:18:56;23.80;26.20
31046;DHT22;17711;54.018;9.300;2023-04-03T12:24:29;23.60;27.60
31046;DHT22;17711;54.018;9.300;2023-04-03T12:27:15;22.90;27.40
31046;DHT22;17711;54.018;9.300;2023-04-03T12:29:50;21.20;25.40
31046;DHT22;17711;54.018;9.300;2023-04-03T12:32:34;18.80;26.10
31046;DHT22;17711;54.018;9.300;2023-04-03T12:35:14;17.30;28.60
31046;DHT22;17711;54.018;9.300;2023-04-03T12:40:51;21.50;26.70
31046;DHT22;17711;54.018;9.300;2023-04-03T12:43:34;23.30;25.30
31046;DHT22;17711;54.018;9.300;2023-04-03T12:46:12;23.10;25.60
31046;DHT22;17711;54.018;9.300;2023-04-03T12:48:51;22.50;26.60
31046;DHT22;17711;54.018;9.300;2023-04-03T12:51:28;22.00;27.00
31046;DHT22;17711;54.018;9.300;2023-04-03T12:54:01;23.50;28.70
31046;DHT22;17711;54.018;9.300;2023-04-03T12:56:31;24.10;25.40
31046;DHT22;17711;54.018;9.300;2023-04-03T12:59:15;23.50;24.10
31046;DHT22;17711;54.018;9.300;2023-04-03T13:01:44;21.50;25.90
31046;DHT22;17711;54.018;9.300;2023-04-03T13:04:21;19.90;28.50
31046;DHT22;17711;54.018;9.300;2023-04-03T13:06:51;18.90;29.30
31046;DHT22;17711;54.018;9.300;2023-04-03T13:09:22;18.80;29.70
31046;DHT22;17711;54.018;9.300;2023-04-03T13:11:54;19.90;32.00
31046;DHT22;17711;54.018;9.300;2023-04-03T13:14:26;21.40;30.60
31046;DHT22;17711;54.018;9.300;2023-04-03T13:16:57;22.20;29.00
31046;DHT22;17711;54.018;9.300;2023-04-03T13:19:27;22.60;28.20
31046;DHT22;17711;54.018;9.300;2023-04-03T13:22:01;22.90;26.40
31046;DHT22;17711;54.018;9.300;2023-04-03T13:24:33;23.50;26.10
31046;DHT22;17711;54.018;9.300;2023-04-03T13:27:03;23.90;25.40
31046;DHT22;17711;54.018;9.300;2023-04-03T13:29:34;24.00;24.10
31046;DHT22;17711;54.018;9.300;2023-04-03T13:32:04;22.60;24.50
31046;DHT22;17711;54.018;9.300;2023-04-03T13:34:37;21.70;27.10
31046;DHT22;17711;54.018;9.300;2023-04-03T13:37:20;21.80;26.40
31046;DHT22;17711;54.018;9.300;2023-04-03T13:39:58;22.10;26.60
31046;DHT22;17711;54.018;9.300;2023-04-03T13:42:28;22.00;25.80
31046;DHT22;17711;54.018;9.300;2023-04-03T13:45:19;22.30;25.70
31046;DHT22;17711;54.018;9.300;2023-04-03T13:47:52;23.70;25.50
31046;DHT22;17711;54.018;9.300;2023-04-03T13:50:23;24.80;22.40
31046;DHT22;17711;54.018;9.300;2023-04-03T13:53:00;24.90;22.80
31046;DHT22;17711;54.018;9.300;2023-04-03T13:55:31;24.50;24.10
31046;DHT22;17711;54.018;9.300;2023-04-03T13:58:02;22.70;24.20
31046;DHT22;17711;54.018;9.300;2023-04-03T14:00:36;20.70;25.40
31046;DHT22;17711;54.018;9.300;2023-04-03T14:03:13;19.20;27.50
31046;DHT22;17711;54.018;9.300;2023-04-03T14:05:42;19.40;29.90
31046;DHT22;17711;54.018;9.300;2023-04-03T14:08:13;20.50;31.20
31046;DHT22;17711;54.018;9.300;2023-04-03T14:10:43;21.60;26.20
31046;DHT22;17711;54.018;9.300;2023-04-03T14:13:14;21.90;27.10
31046;DHT22;17711;54.018;9.300;2023-04-03T14:15:44;22.10;26.50
31046;DHT22;17711;54.018;9.300;2023-04-03T14:18:14;22.60;27.50
31046;DHT22;17711;54.018;9.300;2023-04-03T14:20:43;23.00;25.10
31046;DHT22;17711;54.018;9.300;2023-04-03T14:23:14;22.70;26.20
31046;DHT22;17711;54.018;9.300;2023-04-03T14:25:49;22.50;26.40
31046;DHT22;17711;54.018;9.300;2023-04-03T14:28:20;22.10;25.60
31046;DHT22;17711;54.018;9.300;2023-04-03T14:30:50;20.50;26.60
31046;DHT22;17711;54.018;9.300;2023-04-03T14:33:21;19.00;28.80
31046;DHT22;17711;54.018;9.300;2023-04-03T14:35:49;17.80;30.90
31046;DHT22;17711;54.018;9.300;2023-04-03T14:38:25;18.10;31.70
31046;DHT22;17711;54.018;9.300;2023-04-03T14:40:56;18.80;30.50
31046;DHT22;17711;54.018;9.300;2023-04-03T14:43:39;19.50;29.80
31046;DHT22;17711;54.018;9.300;2023-04-03T14:46:13;20.10;31.30
31046;DHT22;17711;54.018;9.300;2023-04-03T14:48:43;21.00;28.70
31046;DHT22;17711;54.018;9.300;2023-04-03T14:51:14;20.90;29.40
31046;DHT22;17711;54.018;9.300;2023-04-03T14:53:45;20.70;27.30
31046;DHT22;17711;54.018;9.300;2023-04-03T14:56:23;20.60;28.20
31046;DHT22;17711;54.018;9.300;2023-04-03T14:58:55;20.90;28.80
31046;DHT22;17711;54.018;9.300;2023-04-03T15:01:26;20.60;26.80
31046;DHT22;17711;54.018;9.300;2023-04-03T15:03:55;19.60;27.50
31046;DHT22;17711;54.018;9.300;2023-04-03T15:06:25;18.40;30.00
31046;DHT22;17711;54.018;9.300;2023-04-03T15:08:56;17.30;31.20
31046;DHT22;17711;54.018;9.300;2023-04-03T15:11:28;17.10;33.00
31046;DHT22;17711;54.018;9.300;2023-04-03T15:13:57;17.50;33.50
31046;DHT22;17711;54.018;9.300;2023-04-03T15:16:28;17.70;32.70
31046;DHT22;17711;54.018;9.300;2023-04-03T15:18:57;17.70;31.80
31046;DHT22;17711;54.018;9.300;2023-04-03T15:21:32;17.40;34.30
31046;DHT22;17711;54.018;9.300;2023-04-03T15:24:05;17.00;31.60
31046;DHT22;17711;54.018;9.300;2023-04-03T15:26:34;17.20;33.40
31046;DHT22;17711;54.018;9.300;2023-04-03T15:29:03;17.10;32.30
31046;DHT22;17711;54.018;9.300;2023-04-03T15:31:35;16.90;32.90
31046;DHT22;17711;54.018;9.300;2023-04-03T15:34:04;16.70;33.90
31046;DHT22;17711;54.018;9.300;2023-04-03T15:36:33;16.20;33.80
31046;DHT22;17711;54.018;9.300;2023-04-03T15:39:02;15.60;35.90
31046;DHT22;17711;54.018;9.300;2023-04-03T15:41:33;15.60;37.10
31046;DHT22;17711;54.018;9.300;2023-04-03T15:44:03;15.80;38.60
31046;DHT22;17711;54.018;9.300;2023-04-03T15:46:37;16.20;36.70
31046;DHT22;17711;54.018;9.300;2023-04-03T15:49:07;15.90;35.70
31046;DHT22;17711;54.018;9.300;2023-04-03T15:51:37;15.70;37.20
31046;DHT22;17711;54.018;9.300;2023-04-03T15:54:08;15.60;36.40
31046;DHT22;17711;54.018;9.300;2023-04-03T15:56:42;15.50;35.80
31046;DHT22;17711;54.018;9.300;2023-04-03T15:59:12;15.10;37.90
31046;DHT22;17711;54.018;9.300;2023-04-03T16:01:42;14.70;39.50
31046;DHT22;17711;54.018;9.300;2023-04-03T16:04:14;14.30;40.70
31046;DHT22;17711;54.018;9.300;2023-04-03T16:06:47;13.90;40.30
31046;DHT22;17711;54.018;9.300;2023-04-03T16:09:17;13.40;39.90
31046;DHT22;17711;54.018;9.300;2023-04-03T16:11:50;12.90;41.80
31046;DHT22;17711;54.018;9.300;2023-04-03T16:14:20;12.60;42.90
31046;DHT22;17711;54.018;9.300;2023-04-03T16:16:49;12.50;42.60
31046;DHT22;17711;54.018;9.300;2023-04-03T16:19:18;12.40;46.60
31046;DHT22;17711;54.018;9.300;2023-04-03T16:21:49;12.30;48.50
31046;DHT22;17711;54.018;9.300;2023-04-03T16:24:18;12.20;46.40